sensor_id;sensor_type;location;lat;lon;timestamp;temperature;humidity
40289;DHT22;28991;52.028;5.526;2022-09-29T00:02:21;20.80;50.80
40289;DHT22;28991;52.028;5.526;2022-09-29T00:04:47;21.10;51.00
40289;DHT22;28991;52.028;5.526;2022-09-29T00:07:12;20.80;50.80
40289;DHT22;28991;52.028;5.526;2022-09-29T00:09:38;20.80;50.80
40289;DHT22;28991;52.028;5.526;2022-09-29T00:12:03;20.80;50.90
40289;DHT22;28991;52.028;5.526;2022-09-29T00:14:29;20.80;50.90
40289;DHT22;28991;52.028;5.526;2022-09-29T00:16:54;21.50;51.20
40289;DHT22;28991;52.028;5.526;2022-09-29T00:19:20;20.80;50.90
40289;DHT22;28991;52.028;5.526;2022-09-29T00:21:46;21.00;51.00
40289;DHT22;28991;52.028;5.526;2022-09-29T00:24:11;20.80;50.90
40289;DHT22;28991;52.028;5.526;2022-09-29T00:26:37;20.70;50.90
40289;DHT22;28991;52.028;5.526;2022-09-29T00:29:03;20.80;50.90
40289;DHT22;28991;52.028;5.526;2022-09-29T00:31:31;21.60;51.30
40289;DHT22;28991;52.028;5.526;2022-09-29T00:33:57;20.70;50.90
40289;DHT22;28991;52.028;5.526;2022-09-29T00:36:24;20.80;51.00
40289;DHT22;28991;52.028;5.526;2022-09-29T00:38:54;21.00;51.10
40289;DHT22;28991;52.028;5.526;2022-09-29T00:41:23;20.80;50.90
40289;DHT22;28991;52.028;5.526;2022-09-29T00:51:55;20.70;50.90
40289;DHT22;28991;52.028;5.526;2022-09-29T00:54:22;20.70;50.90
40289;DHT22;28991;52.028;5.526;2022-09-29T00:56:51;20.70;50.90
40289;DHT22;28991;52.028;5.526;2022-09-29T00:59:24;20.70;51.50
40289;DHT22;28991;52.028;5.526;2022-09-29T01:01:52;20.70;50.90
40289;DHT22;28991;52.028;5.526;2022-09-29T01:04:19;20.70;50.90
40289;DHT22;28991;52.028;5.526;2022-09-29T01:06:55;20.70;51.00
40289;DHT22;28991;52.028;5.526;2022-09-29T01:09:31;20.70;51.00
40289;DHT22;28991;52.028;5.526;2022-09-29T01:12:00;20.70;50.90
40289;DHT22;28991;52.028;5.526;2022-09-29T01:14:27;20.70;51.00
40289;DHT22;28991;52.028;5.526;2022-09-29T01:16:53;20.70;51.00
40289;DHT22;28991;52.028;5.526;2022-09-29T01:28:34;20.70;51.00
40289;DHT22;28991;52.028;5.526;2022-09-29T01:33:56;20.70;51.00
40289;DHT22;28991;52.028;5.526;2022-09-29T01:36:50;20.70;51.10
40289;DHT22;28991;52.028;5.526;2022-09-29T01:42:18;20.70;51.00
40289;DHT22;28991;52.028;5.526;2022-09-29T01:45:25;20.70;51.00
40289;DHT22;28991;52.028;5.526;2022-09-29T01:48:00;20.70;51.00
40289;DHT22;28991;52.028;5.526;2022-09-29T01:50:43;20.70;51.00
40289;DHT22;28991;52.028;5.526;2022-09-29T01:53:10;20.80;51.10
40289;DHT22;28991;52.028;5.526;2022-09-29T01:55:53;20.70;51.00
40289;DHT22;28991;52.028;5.526;2022-09-29T01:58:34;20.70;51.10
40289;DHT22;28991;52.028;5.526;2022-09-29T02:01:06;20.70;51.10
40289;DHT22;28991;52.028;5.526;2022-09-29T02:03:38;20.60;51.10
40289;DHT22;28991;52.028;5.526;2022-09-29T02:06:32;20.70;51.10
40289;DHT22;28991;52.028;5.526;2022-09-29T02:09:08;20.60;51.00
40289;DHT22;28991;52.028;5.526;2022-09-29T02:11:39;20.70;51.10
40289;DHT22;28991;52.028;5.526;2022-09-29T02:16:41;20.60;51.00
40289;DHT22;28991;52.028;5.526;2022-09-29T02:19:14;20.60;51.00
40289;DHT22;28991;52.028;5.526;2022-09-29T02:21:42;20.70;51.10
40289;DHT22;28991;52.028;5.526;2022-09-29T02:24:09;20.50;51.00
40289;DHT22;28991;52.028;5.526;2022-09-29T02:26:35;20.80;51.20
40289;DHT22;28991;52.028;5.526;2022-09-29T02:29:02;21.10;51.30
40289;DHT22;28991;52.028;5.526;2022-09-29T02:31:29;20.60;51.10
40289;DHT22;28991;52.028;5.526;2022-09-29T02:33:55;20.60;51.00
40289;DHT22;28991;52.028;5.526;2022-09-29T02:39:21;20.60;51.10
40289;DHT22;28991;52.028;5.526;2022-09-29T02:44:28;20.60;51.10
40289;DHT22;28991;52.028;5.526;2022-09-29T02:52:43;20.40;50.90
40289;DHT22;28991;52.028;5.526;2022-09-29T02:57:56;20.60;51.10
40289;DHT22;28991;52.028;5.526;2022-09-29T03:00:25;20.60;51.10
40289;DHT22;28991;52.028;5.526;2022-09-29T03:02:51;20.60;51.10
40289;DHT22;28991;52.028;5.526;2022-09-29T03:05:20;20.60;51.10
40289;DHT22;28991;52.028;5.526;2022-09-29T03:07:47;20.60;51.10
40289;DHT22;28991;52.028;5.526;2022-09-29T03:10:14;20.50;51.00
40289;DHT22;28991;52.028;5.526;2022-09-29T03:12:43;20.50;51.00
40289;DHT22;28991;52.028;5.526;2022-09-29T03:15:10;20.50;51.00
40289;DHT22;28991;52.028;5.526;2022-09-29T03:17:37;20.50;51.00
40289;DHT22;28991;52.028;5.526;2022-09-29T03:20:03;20.60;51.10
40289;DHT22;28991;52.028;5.526;2022-09-29T03:22:29;20.60;51.10
40289;DHT22;28991;52.028;5.526;2022-09-29T03:24:55;20.60;51.10
40289;DHT22;28991;52.028;5.526;2022-09-29T03:27:20;20.60;51.10
40289;DHT22;28991;52.028;5.526;2022-09-29T03:29:46;20.50;51.00
40289;DHT22;28991;52.028;5.526;2022-09-29T03:32:11;20.50;51.00
40289;DHT22;28991;52.028;5.526;2022-09-29T03:34:37;20.80;51.20
40289;DHT22;28991;52.028;5.526;2022-09-29T03:37:03;20.50;51.00
40289;DHT22;28991;52.028;5.526;2022-09-29T03:39:29;20.50;51.00
40289;DHT22;28991;52.028;5.526;2022-09-29T03:41:54;20.50;51.00
40289;DHT22;28991;52.028;5.526;2022-09-29T03:44:20;20.60;51.10
40289;DHT22;28991;52.028;5.526;2022-09-29T03:46:45;20.50;51.00
40289;DHT22;28991;52.028;5.526;2022-09-29T03:49:12;20.50;51.00
40289;DHT22;28991;52.028;5.526;2022-09-29T03:51:39;20.50;51.00
40289;DHT22;28991;52.028;5.526;2022-09-29T03:54:05;20.50;51.00
40289;DHT22;28991;52.028;5.526;2022-09-29T03:56:31;20.50;51.00
40289;DHT22;28991;52.028;5.526;2022-09-29T03:58:57;20.70;51.20
40289;DHT22;28991;52.028;5.526;2022-09-29T04:01:23;20.60;51.10
40289;DHT22;28991;52.028;5.526;2022-09-29T04:03:48;20.50;51.10
40289;DHT22;28991;52.028;5.526;2022-09-29T04:06:14;20.50;51.60
40289;DHT22;28991;52.028;5.526;2022-09-29T04:08:39;20.50;51.10
40289;DHT22;28991;52.028;5.526;2022-09-29T04:11:05;20.50;51.10
40289;DHT22;28991;52.028;5.526;2022-09-29T04:13:32;20.50;51.10
40289;DHT22;28991;52.028;5.526;2022-09-29T04:16:02;20.50;51.10
40289;DHT22;28991;52.028;5.526;2022-09-29T04:18:28;20.50;51.10
40289;DHT22;28991;52.028;5.526;2022-09-29T04:20:54;20.50;51.10
40289;DHT22;28991;52.028;5.526;2022-09-29T04:23:28;20.50;51.10
40289;DHT22;28991;52.028;5.526;2022-09-29T04:25:55;20.50;51.10
40289;DHT22;28991;52.028;5.526;2022-09-29T04:28:20;20.50;51.10
40289;DHT22;28991;52.028;5.526;2022-09-29T04:30:46;20.50;51.10
40289;DHT22;28991;52.028;5.526;2022-09-29T04:33:11;20.50;51.10
40289;DHT22;28991;52.028;5.526;2022-09-29T04:35:37;20.50;51.10
40289;DHT22;28991;52.028;5.526;2022-09-29T04:38:02;20.50;51.10
40289;DHT22;28991;52.028;5.526;2022-09-29T04:40:28;20.50;50.10
40289;DHT22;28991;52.028;5.526;2022-09-29T04:42:53;20.50;48.20
40289;DHT22;28991;52.028;5.526;2022-09-29T04:45:19;20.50;47.70
40289;DHT22;28991;52.028;5.526;2022-09-29T04:47:45;20.60;46.90
40289;DHT22;28991;52.028;5.526;2022-09-29T04:50:10;21.20;46.40
40289;DHT22;28991;52.028;5.526;2022-09-29T04:52:36;20.70;45.40
40289;DHT22;28991;52.028;5.526;2022-09-29T04:55:02;20.70;44.60
40289;DHT22;28991;52.028;5.526;2022-09-29T04:57:28;20.80;44.00
40289;DHT22;28991;52.028;5.526;2022-09-29T04:59:54;20.80;43.70
40289;DHT22;28991;52.028;5.526;2022-09-29T05:02:20;21.40;43.90
40289;DHT22;28991;52.028;5.526;2022-09-29T05:04:46;20.90;42.80
40289;DHT22;28991;52.028;5.526;2022-09-29T05:07:13;21.00;42.30
40289;DHT22;28991;52.028;5.526;2022-09-29T05:09:39;21.30;43.00
40289;DHT22;28991;52.028;5.526;2022-09-29T05:12:05;21.00;41.80
40289;DHT22;28991;52.028;5.526;2022-09-29T05:14:30;21.00;40.90
40289;DHT22;28991;52.028;5.526;2022-09-29T05:16:57;21.00;40.90
40289;DHT22;28991;52.028;5.526;2022-09-29T05:19:22;21.00;40.70
40289;DHT22;28991;52.028;5.526;2022-09-29T05:21:48;21.00;41.20
40289;DHT22;28991;52.028;5.526;2022-09-29T05:24:14;21.00;41.00
40289;DHT22;28991;52.028;5.526;2022-09-29T05:26:39;21.00;40.90
40289;DHT22;28991;52.028;5.526;2022-09-29T05:29:05;21.00;40.10
40289;DHT22;28991;52.028;5.526;2022-09-29T05:31:30;21.00;40.80
40289;DHT22;28991;52.028;5.526;2022-09-29T05:33:56;21.00;40.60
40289;DHT22;28991;52.028;5.526;2022-09-29T05:36:22;21.40;40.60
40289;DHT22;28991;52.028;5.526;2022-09-29T05:38:48;21.00;42.10
40289;DHT22;28991;52.028;5.526;2022-09-29T05:41:14;21.00;42.50
40289;DHT22;28991;52.028;5.526;2022-09-29T05:43:47;21.10;42.70
40289;DHT22;28991;52.028;5.526;2022-09-29T05:46:13;21.00;43.10
40289;DHT22;28991;52.028;5.526;2022-09-29T05:48:41;21.10;42.90
40289;DHT22;28991;52.028;5.526;2022-09-29T05:51:13;21.10;42.00
40289;DHT22;28991;52.028;5.526;2022-09-29T05:53:39;21.10;42.30
40289;DHT22;28991;52.028;5.526;2022-09-29T05:56:10;21.10;42.50
40289;DHT22;28991;52.028;5.526;2022-09-29T05:58:37;21.10;42.50
40289;DHT22;28991;52.028;5.526;2022-09-29T06:01:12;21.10;43.10
40289;DHT22;28991;52.028;5.526;2022-09-29T06:03:38;21.10;42.70
40289;DHT22;28991;52.028;5.526;2022-09-29T06:06:09;21.10;41.60
40289;DHT22;28991;52.028;5.526;2022-09-29T06:08:36;21.10;42.10
40289;DHT22;28991;52.028;5.526;2022-09-29T06:11:07;21.10;42.20
40289;DHT22;28991;52.028;5.526;2022-09-29T06:13:36;21.10;42.60
40289;DHT22;28991;52.028;5.526;2022-09-29T06:16:01;21.20;43.00
40289;DHT22;28991;52.028;5.526;2022-09-29T06:18:27;21.20;42.50
40289;DHT22;28991;52.028;5.526;2022-09-29T06:21:00;23.00;43.10
40289;DHT22;28991;52.028;5.526;2022-09-29T06:23:26;21.20;42.80
40289;DHT22;28991;52.028;5.526;2022-09-29T06:25:58;21.20;42.00
40289;DHT22;28991;52.028;5.526;2022-09-29T06:28:24;21.20;42.10
40289;DHT22;28991;52.028;5.526;2022-09-29T06:30:50;21.70;42.60
40289;DHT22;28991;52.028;5.526;2022-09-29T06:33:16;21.30;41.30
40289;DHT22;28991;52.028;5.526;2022-09-29T06:35:46;21.20;42.30
40289;DHT22;28991;52.028;5.526;2022-09-29T06:38:32;21.30;42.60
40289;DHT22;28991;52.028;5.526;2022-09-29T06:40:58;21.40;42.20
40289;DHT22;28991;52.028;5.526;2022-09-29T06:43:23;21.40;41.80
40289;DHT22;28991;52.028;5.526;2022-09-29T06:45:49;21.40;42.00
40289;DHT22;28991;52.028;5.526;2022-09-29T06:48:14;21.40;41.40
40289;DHT22;28991;52.028;5.526;2022-09-29T06:50:40;21.40;41.60
40289;DHT22;28991;52.028;5.526;2022-09-29T06:53:05;21.50;41.90
40289;DHT22;28991;52.028;5.526;2022-09-29T06:55:31;21.50;41.90
40289;DHT22;28991;52.028;5.526;2022-09-29T06:57:57;21.50;40.80
40289;DHT22;28991;52.028;5.526;2022-09-29T07:00:22;21.50;41.90
40289;DHT22;28991;52.028;5.526;2022-09-29T07:02:48;21.60;41.70
40289;DHT22;28991;52.028;5.526;2022-09-29T07:05:13;21.60;41.80
40289;DHT22;28991;52.028;5.526;2022-09-29T07:07:40;21.60;42.00
40289;DHT22;28991;52.028;5.526;2022-09-29T07:10:06;21.60;41.60
40289;DHT22;28991;52.028;5.526;2022-09-29T07:12:32;21.70;41.10
40289;DHT22;28991;52.028;5.526;2022-09-29T07:14:58;21.70;41.50
40289;DHT22;28991;52.028;5.526;2022-09-29T07:17:23;21.80;41.70
40289;DHT22;28991;52.028;5.526;2022-09-29T07:19:49;22.20;41.60
40289;DHT22;28991;52.028;5.526;2022-09-29T07:22:14;21.80;41.50
40289;DHT22;28991;52.028;5.526;2022-09-29T07:24:43;21.80;41.40
40289;DHT22;28991;52.028;5.526;2022-09-29T07:27:08;21.80;41.20
40289;DHT22;28991;52.028;5.526;2022-09-29T07:29:34;21.80;41.20
40289;DHT22;28991;52.028;5.526;2022-09-29T07:32:00;21.80;41.10
40289;DHT22;28991;52.028;5.526;2022-09-29T07:34:25;21.80;41.10
40289;DHT22;28991;52.028;5.526;2022-09-29T07:36:51;21.90;41.20
40289;DHT22;28991;52.028;5.526;2022-09-29T07:39:18;21.80;41.20
40289;DHT22;28991;52.028;5.526;2022-09-29T07:41:45;21.60;40.50
40289;DHT22;28991;52.028;5.526;2022-09-29T07:44:10;21.80;40.90
40289;DHT22;28991;52.028;5.526;2022-09-29T07:46:36;21.80;40.90
40289;DHT22;28991;52.028;5.526;2022-09-29T07:49:02;21.80;41.50
40289;DHT22;28991;52.028;5.526;2022-09-29T07:51:27;21.80;41.40
40289;DHT22;28991;52.028;5.526;2022-09-29T07:53:53;21.90;41.50
40289;DHT22;28991;52.028;5.526;2022-09-29T07:56:20;21.80;41.50
40289;DHT22;28991;52.028;5.526;2022-09-29T07:58:47;21.90;41.40
40289;DHT22;28991;52.028;5.526;2022-09-29T08:01:17;21.90;41.20
40289;DHT22;28991;52.028;5.526;2022-09-29T08:03:48;22.00;41.60
40289;DHT22;28991;52.028;5.526;2022-09-29T08:06:14;22.00;41.30
40289;DHT22;28991;52.028;5.526;2022-09-29T08:08:40;21.90;41.10
40289;DHT22;28991;52.028;5.526;2022-09-29T08:11:08;22.10;41.30
40289;DHT22;28991;52.028;5.526;2022-09-29T08:13:34;22.10;41.30
40289;DHT22;28991;52.028;5.526;2022-09-29T08:16:02;22.10;41.30
40289;DHT22;28991;52.028;5.526;2022-09-29T08:18:30;22.20;41.40
40289;DHT22;28991;52.028;5.526;2022-09-29T08:20:56;22.20;41.50
40289;DHT22;28991;52.028;5.526;2022-09-29T08:23:22;22.20;41.50
40289;DHT22;28991;52.028;5.526;2022-09-29T08:25:49;22.30;41.70
40289;DHT22;28991;52.028;5.526;2022-09-29T08:28:15;22.30;41.60
40289;DHT22;28991;52.028;5.526;2022-09-29T08:30:41;22.30;41.50
40289;DHT22;28991;52.028;5.526;2022-09-29T08:33:06;22.40;41.50
40289;DHT22;28991;52.028;5.526;2022-09-29T08:35:39;22.40;41.60
40289;DHT22;28991;52.028;5.526;2022-09-29T08:38:04;22.40;41.60
40289;DHT22;28991;52.028;5.526;2022-09-29T08:40:30;22.40;41.60
40289;DHT22;28991;52.028;5.526;2022-09-29T08:45:35;22.30;41.80
40289;DHT22;28991;52.028;5.526;2022-09-29T08:48:22;22.30;41.80
40289;DHT22;28991;52.028;5.526;2022-09-29T08:53:21;22.30;42.20
40289;DHT22;28991;52.028;5.526;2022-09-29T08:55:51;22.30;42.30
40289;DHT22;28991;52.028;5.526;2022-09-29T08:58:18;22.30;42.40
40289;DHT22;28991;52.028;5.526;2022-09-29T09:03:13;22.40;42.50
40289;DHT22;28991;52.028;5.526;2022-09-29T09:11:28;22.40;43.00
40289;DHT22;28991;52.028;5.526;2022-09-29T09:25:18;22.40;43.60
40289;DHT22;28991;52.028;5.526;2022-09-29T09:27:54;22.50;43.70
40289;DHT22;28991;52.028;5.526;2022-09-29T09:30:21;24.00;44.60
40289;DHT22;28991;52.028;5.526;2022-09-29T09:32:57;22.50;43.90
40289;DHT22;28991;52.028;5.526;2022-09-29T09:35:40;22.50;43.90
40289;DHT22;28991;52.028;5.526;2022-09-29T09:38:33;22.60;43.90
40289;DHT22;28991;52.028;5.526;2022-09-29T09:41:03;22.40;43.80
40289;DHT22;28991;52.028;5.526;2022-09-29T09:43:33;22.60;44.00
40289;DHT22;28991;52.028;5.526;2022-09-29T09:46:17;22.60;44.10
40289;DHT22;28991;52.028;5.526;2022-09-29T09:48:54;22.60;44.10
40289;DHT22;28991;52.028;5.526;2022-09-29T09:57:01;22.70;44.50
40289;DHT22;28991;52.028;5.526;2022-09-29T10:01:59;22.60;44.70
40289;DHT22;28991;52.028;5.526;2022-09-29T10:04:25;22.60;44.70
40289;DHT22;28991;52.028;5.526;2022-09-29T10:06:51;22.60;44.80
40289;DHT22;28991;52.028;5.526;2022-09-29T10:09:17;22.60;44.90
40289;DHT22;28991;52.028;5.526;2022-09-29T10:11:44;22.70;45.10
40289;DHT22;28991;52.028;5.526;2022-09-29T10:14:24;22.70;45.20
40289;DHT22;28991;52.028;5.526;2022-09-29T10:17:05;22.70;45.20
40289;DHT22;28991;52.028;5.526;2022-09-29T10:20:03;22.70;45.20
40289;DHT22;28991;52.028;5.526;2022-09-29T10:22:31;22.60;45.40
40289;DHT22;28991;52.028;5.526;2022-09-29T10:27:33;22.80;45.50
40289;DHT22;28991;52.028;5.526;2022-09-29T10:30:01;22.80;45.60
40289;DHT22;28991;52.028;5.526;2022-09-29T10:32:32;22.80;45.60
40289;DHT22;28991;52.028;5.526;2022-09-29T10:37:42;22.90;45.60
40289;DHT22;28991;52.028;5.526;2022-09-29T10:42:36;22.90;45.60
40289;DHT22;28991;52.028;5.526;2022-09-29T10:45:23;22.90;45.70
40289;DHT22;28991;52.028;5.526;2022-09-29T10:50:36;23.00;46.00
40289;DHT22;28991;52.028;5.526;2022-09-29T10:55:52;23.00;46.70
40289;DHT22;28991;52.028;5.526;2022-09-29T10:58:34;23.00;46.20
40289;DHT22;28991;52.028;5.526;2022-09-29T11:01:12;23.00;46.20
40289;DHT22;28991;52.028;5.526;2022-09-29T11:03:40;22.90;46.20
40289;DHT22;28991;52.028;5.526;2022-09-29T11:06:12;23.10;46.40
40289;DHT22;28991;52.028;5.526;2022-09-29T11:17:25;22.90;46.60
40289;DHT22;28991;52.028;5.526;2022-09-29T11:19:51;22.90;46.50
40289;DHT22;28991;52.028;5.526;2022-09-29T11:33:18;22.90;46.70
40289;DHT22;28991;52.028;5.526;2022-09-29T11:35:57;22.90;46.80
40289;DHT22;28991;52.028;5.526;2022-09-29T11:38:37;22.90;46.80
40289;DHT22;28991;52.028;5.526;2022-09-29T11:46:53;22.90;46.70
40289;DHT22;28991;52.028;5.526;2022-09-29T11:55:27;22.70;46.80
40289;DHT22;28991;52.028;5.526;2022-09-29T11:58:34;22.70;46.80
40289;DHT22;28991;52.028;5.526;2022-09-29T12:07:15;22.70;46.80
40289;DHT22;28991;52.028;5.526;2022-09-29T12:17:25;22.60;46.70
40289;DHT22;28991;52.028;5.526;2022-09-29T12:20:04;22.60;46.60
40289;DHT22;28991;52.028;5.526;2022-09-29T12:22:30;22.60;46.70
40289;DHT22;28991;52.028;5.526;2022-09-29T12:24:58;22.60;46.60
40289;DHT22;28991;52.028;5.526;2022-09-29T12:27:34;22.60;46.50
40289;DHT22;28991;52.028;5.526;2022-09-29T12:32:43;22.60;46.40
40289;DHT22;28991;52.028;5.526;2022-09-29T12:35:20;22.60;46.30
40289;DHT22;28991;52.028;5.526;2022-09-29T12:40:51;22.60;46.30
40289;DHT22;28991;52.028;5.526;2022-09-29T12:43:28;22.70;46.30
40289;DHT22;28991;52.028;5.526;2022-09-29T12:46:16;22.60;46.20
40289;DHT22;28991;52.028;5.526;2022-09-29T12:51:51;22.60;46.10
40289;DHT22;28991;52.028;5.526;2022-09-29T12:59:54;24.50;46.90
40289;DHT22;28991;52.028;5.526;2022-09-29T13:05:10;22.60;45.80
40289;DHT22;28991;52.028;5.526;2022-09-29T13:16:28;22.60;45.20
40289;DHT22;28991;52.028;5.526;2022-09-29T13:22:39;22.50;45.40
40289;DHT22;28991;52.028;5.526;2022-09-29T13:27:36;22.50;45.30
40289;DHT22;28991;52.028;5.526;2022-09-29T13:32:59;22.40;45.10
40289;DHT22;28991;52.028;5.526;2022-09-29T13:35:26;22.50;45.10
40289;DHT22;28991;52.028;5.526;2022-09-29T13:38:02;22.40;45.20
40289;DHT22;28991;52.028;5.526;2022-09-29T13:40:29;22.50;44.90
40289;DHT22;28991;52.028;5.526;2022-09-29T13:42:57;22.40;44.90
40289;DHT22;28991;52.028;5.526;2022-09-29T13:47:51;22.50;44.90
40289;DHT22;28991;52.028;5.526;2022-09-29T13:50:41;22.40;44.80
40289;DHT22;28991;52.028;5.526;2022-09-29T13:58:32;22.40;44.70
40289;DHT22;28991;52.028;5.526;2022-09-29T14:01:04;22.40;44.50
40289;DHT22;28991;52.028;5.526;2022-09-29T14:03:41;22.40;44.50
40289;DHT22;28991;52.028;5.526;2022-09-29T14:06:22;22.40;44.30
40289;DHT22;28991;52.028;5.526;2022-09-29T14:14:19;22.40;43.70
40289;DHT22;28991;52.028;5.526;2022-09-29T14:16:48;22.30;44.70
40289;DHT22;28991;52.028;5.526;2022-09-29T14:21:55;22.40;44.20
40289;DHT22;28991;52.028;5.526;2022-09-29T14:27:31;22.30;43.20
40289;DHT22;28991;52.028;5.526;2022-09-29T14:35:31;22.30;43.50
40289;DHT22;28991;52.028;5.526;2022-09-29T14:40:25;22.30;43.60
40289;DHT22;28991;52.028;5.526;2022-09-29T14:43:03;22.20;43.40
40289;DHT22;28991;52.028;5.526;2022-09-29T14:45:51;22.30;43.60
40289;DHT22;28991;52.028;5.526;2022-09-29T14:49:47;22.20;43.60
40289;DHT22;28991;52.028;5.526;2022-09-29T14:52:15;22.10;43.60
40289;DHT22;28991;52.028;5.526;2022-09-29T14:55:13;22.20;43.80
40289;DHT22;28991;52.028;5.526;2022-09-29T15:00:22;22.20;43.90
40289;DHT22;28991;52.028;5.526;2022-09-29T15:02:54;22.10;44.00
40289;DHT22;28991;52.028;5.526;2022-09-29T15:05:27;22.10;44.10
40289;DHT22;28991;52.028;5.526;2022-09-29T15:07:53;22.00;44.00
40289;DHT22;28991;52.028;5.526;2022-09-29T15:10:38;22.10;44.10
40289;DHT22;28991;52.028;5.526;2022-09-29T15:13:24;22.10;44.00
40289;DHT22;28991;52.028;5.526;2022-09-29T15:16:03;22.10;44.00
40289;DHT22;28991;52.028;5.526;2022-09-29T15:18:37;22.00;44.10
40289;DHT22;28991;52.028;5.526;2022-09-29T15:21:18;22.00;44.00
40289;DHT22;28991;52.028;5.526;2022-09-29T15:26:31;22.00;44.10
40289;DHT22;28991;52.028;5.526;2022-09-29T15:28:58;22.00;43.90
40289;DHT22;28991;52.028;5.526;2022-09-29T15:31:30;22.00;44.10
40289;DHT22;28991;52.028;5.526;2022-09-29T15:33:58;22.00;43.80
40289;DHT22;28991;52.028;5.526;2022-09-29T15:36:29;22.00;43.80
40289;DHT22;28991;52.028;5.526;2022-09-29T15:39:09;22.00;43.60
40289;DHT22;28991;52.028;5.526;2022-09-29T15:41:38;22.00;43.90
40289;DHT22;28991;52.028;5.526;2022-09-29T15:44:12;22.00;43.90
40289;DHT22;28991;52.028;5.526;2022-09-29T15:46:50;22.00;43.70
40289;DHT22;28991;52.028;5.526;2022-09-29T15:49:19;22.00;43.90
40289;DHT22;28991;52.028;5.526;2022-09-29T15:52:09;21.90;43.60
40289;DHT22;28991;52.028;5.526;2022-09-29T15:54:39;22.00;43.70
40289;DHT22;28991;52.028;5.526;2022-09-29T16:03:09;21.90;43.80
40289;DHT22;28991;52.028;5.526;2022-09-29T16:05:42;21.90;44.00
40289;DHT22;28991;52.028;5.526;2022-09-29T16:10:51;21.90;44.20
40289;DHT22;28991;52.028;5.526;2022-09-29T16:13:34;21.90;44.30
40289;DHT22;28991;52.028;5.526;2022-09-29T16:16:03;21.90;44.30
40289;DHT22;28991;52.028;5.526;2022-09-29T16:18:48;21.80;44.30
40289;DHT22;28991;52.028;5.526;2022-09-29T16:21:20;21.80;44.40
40289;DHT22;28991;52.028;5.526;2022-09-29T16:24:00;21.80;44.50
40289;DHT22;28991;52.028;5.526;2022-09-29T16:31:26;21.70;44.60
40289;DHT22;28991;52.028;5.526;2022-09-29T16:33:54;21.70;44.70
40289;DHT22;28991;52.028;5.526;2022-09-29T16:36:26;21.60;44.60
40289;DHT22;28991;52.028;5.526;2022-09-29T16:38:53;21.60;44.70
40289;DHT22;28991;52.028;5.526;2022-09-29T16:41:29;21.60;44.70
40289;DHT22;28991;52.028;5.526;2022-09-29T16:44:14;21.60;44.80
40289;DHT22;28991;52.028;5.526;2022-09-29T16:49:20;21.60;44.90
40289;DHT22;28991;52.028;5.526;2022-09-29T16:51:48;21.60;44.90
40289;DHT22;28991;52.028;5.526;2022-09-29T16:54:28;21.60;45.00
40289;DHT22;28991;52.028;5.526;2022-09-29T16:57:15;21.50;44.90
40289;DHT22;28991;52.028;5.526;2022-09-29T16:59:43;21.60;45.00
40289;DHT22;28991;52.028;5.526;2022-09-29T17:02:10;21.50;45.00
40289;DHT22;28991;52.028;5.526;2022-09-29T17:04:36;21.50;45.10
40289;DHT22;28991;52.028;5.526;2022-09-29T17:07:01;21.50;45.10
40289;DHT22;28991;52.028;5.526;2022-09-29T17:09:27;21.50;45.10
40289;DHT22;28991;52.028;5.526;2022-09-29T17:11:53;21.50;45.20
40289;DHT22;28991;52.028;5.526;2022-09-29T17:14:19;21.40;45.20
40289;DHT22;28991;52.028;5.526;2022-09-29T17:16:49;21.40;45.20
40289;DHT22;28991;52.028;5.526;2022-09-29T17:19:16;21.40;45.20
40289;DHT22;28991;52.028;5.526;2022-09-29T17:21:41;21.40;45.30
40289;DHT22;28991;52.028;5.526;2022-09-29T17:24:07;21.40;45.30
40289;DHT22;28991;52.028;5.526;2022-09-29T17:26:39;21.60;45.50
40289;DHT22;28991;52.028;5.526;2022-09-29T17:29:24;21.40;45.40
40289;DHT22;28991;52.028;5.526;2022-09-29T17:31:49;21.30;45.40
40289;DHT22;28991;52.028;5.526;2022-09-29T17:34:15;21.40;45.50
40289;DHT22;28991;52.028;5.526;2022-09-29T17:36:42;21.30;45.50
40289;DHT22;28991;52.028;5.526;2022-09-29T17:39:08;21.00;45.40
40289;DHT22;28991;52.028;5.526;2022-09-29T17:41:34;21.30;45.50
40289;DHT22;28991;52.028;5.526;2022-09-29T17:43:59;21.30;45.60
40289;DHT22;28991;52.028;5.526;2022-09-29T17:46:28;21.30;45.70
40289;DHT22;28991;52.028;5.526;2022-09-29T17:48:54;21.60;45.90
40289;DHT22;28991;52.028;5.526;2022-09-29T17:51:19;21.30;45.80
40289;DHT22;28991;52.028;5.526;2022-09-29T17:53:45;21.30;45.80
40289;DHT22;28991;52.028;5.526;2022-09-29T17:56:24;21.20;45.80
40289;DHT22;28991;52.028;5.526;2022-09-29T17:58:51;21.40;45.90
40289;DHT22;28991;52.028;5.526;2022-09-29T18:01:19;21.20;45.90
40289;DHT22;28991;52.028;5.526;2022-09-29T18:03:46;21.20;45.90
40289;DHT22;28991;52.028;5.526;2022-09-29T18:06:20;21.20;45.90
40289;DHT22;28991;52.028;5.526;2022-09-29T18:08:47;21.20;46.00
40289;DHT22;28991;52.028;5.526;2022-09-29T18:11:16;21.30;46.00
40289;DHT22;28991;52.028;5.526;2022-09-29T18:13:43;21.10;46.00
40289;DHT22;28991;52.028;5.526;2022-09-29T18:16:12;21.10;46.00
40289;DHT22;28991;52.028;5.526;2022-09-29T18:18:38;21.20;46.10
40289;DHT22;28991;52.028;5.526;2022-09-29T18:21:04;21.00;46.00
40289;DHT22;28991;52.028;5.526;2022-09-29T18:23:30;21.20;46.20
40289;DHT22;28991;52.028;5.526;2022-09-29T18:25:59;21.10;46.20
40289;DHT22;28991;52.028;5.526;2022-09-29T18:28:25;21.00;46.20
40289;DHT22;28991;52.028;5.526;2022-09-29T18:30:56;21.10;46.30
40289;DHT22;28991;52.028;5.526;2022-09-29T18:33:25;21.10;46.30
40289;DHT22;28991;52.028;5.526;2022-09-29T18:35:53;21.10;46.30
40289;DHT22;28991;52.028;5.526;2022-09-29T18:38:19;21.10;46.40
40289;DHT22;28991;52.028;5.526;2022-09-29T18:40:45;21.10;46.40
40289;DHT22;28991;52.028;5.526;2022-09-29T18:43:12;21.40;46.60
40289;DHT22;28991;52.028;5.526;2022-09-29T18:45:38;21.10;46.50
40289;DHT22;28991;52.028;5.526;2022-09-29T18:48:08;21.00;46.50
40289;DHT22;28991;52.028;5.526;2022-09-29T18:50:38;21.10;46.50
40289;DHT22;28991;52.028;5.526;2022-09-29T18:53:07;21.10;46.60
40289;DHT22;28991;52.028;5.526;2022-09-29T18:55:32;20.90;46.50
40289;DHT22;28991;52.028;5.526;2022-09-29T18:57:59;21.00;46.60
40289;DHT22;28991;52.028;5.526;2022-09-29T19:00:38;21.00;46.60
40289;DHT22;28991;52.028;5.526;2022-09-29T19:03:04;21.00;46.70
40289;DHT22;28991;52.028;5.526;2022-09-29T19:05:31;21.10;46.80
40289;DHT22;28991;52.028;5.526;2022-09-29T19:08:00;21.00;46.70
40289;DHT22;28991;52.028;5.526;2022-09-29T19:10:26;21.00;46.70
40289;DHT22;28991;52.028;5.526;2022-09-29T19:12:57;21.00;47.40
40289;DHT22;28991;52.028;5.526;2022-09-29T19:15:24;21.00;46.80
40289;DHT22;28991;52.028;5.526;2022-09-29T19:17:51;21.00;46.80
40289;DHT22;28991;52.028;5.526;2022-09-29T19:20:20;21.00;46.90
40289;DHT22;28991;52.028;5.526;2022-09-29T19:22:48;21.00;46.80